createdAt,value
2022-12-12T00:00:14.190Z,0
2022-12-12T00:01:14.280Z,0
2022-12-12T00:02:14.153Z,0
2022-12-12T00:03:14.569Z,0
2022-12-12T00:04:14.078Z,0
2022-12-12T00:05:14.902Z,0
2022-12-12T00:06:14.302Z,0
2022-12-12T00:07:13.507Z,0
2022-12-12T00:08:14.130Z,0
2022-12-12T00:09:13.714Z,0
2022-12-12T00:10:13.731Z,0
2022-12-12T00:11:13.680Z,0
2022-12-12T00:12:13.659Z,0
2022-12-12T00:13:13.377Z,0
2022-12-12T00:14:14.120Z,0
2022-12-12T00:15:20.674Z,0
2022-12-12T00:16:19.704Z,0
2022-12-12T00:17:13.303Z,0
2022-12-12T00:18:18.855Z,0
2022-12-12T00:19:13.531Z,0
2022-12-12T00:20:13.490Z,0
2022-12-12T00:21:13.191Z,0
2022-12-12T00:22:13.690Z,0
2022-12-12T00:23:13.912Z,0
2022-12-12T00:24:13.402Z,0
2022-12-12T00:25:13.851Z,0
2022-12-12T00:26:19.062Z,0
2022-12-12T00:27:19.579Z,0
2022-12-12T00:28:13.573Z,0
2022-12-12T00:29:12.769Z,0
2022-12-12T00:30:13.006Z,0
2022-12-12T00:31:14.055Z,0
2022-12-12T00:32:12.954Z,0
2022-12-12T00:33:13.187Z,0
2022-12-12T00:34:13.423Z,0
2022-12-12T00:35:14.219Z,0
2022-12-12T00:36:14.642Z,0
2022-12-12T00:37:14.125Z,0
2022-12-12T00:38:14.341Z,0
2022-12-12T00:39:21.627Z,0
2022-12-12T00:40:13.802Z,0
2022-12-12T00:41:14.286Z,0
2022-12-12T00:42:14.516Z,0
2022-12-12T00:43:14.241Z,0
2022-12-12T00:44:14.233Z,0
2022-12-12T00:45:15.024Z,0
2022-12-12T00:46:13.882Z,0
2022-12-12T00:47:13.942Z,0
2022-12-12T00:48:14.128Z,0
2022-12-12T00:49:14.115Z,0
2022-12-12T00:50:13.591Z,0
2022-12-12T00:51:14.099Z,0
2022-12-12T00:52:13.270Z,0
2022-12-12T00:53:13.507Z,0
2022-12-12T00:54:13.487Z,0
2022-12-12T00:55:14.840Z,0
2022-12-12T00:56:13.469Z,0
2022-12-12T00:57:13.922Z,0
2022-12-12T00:58:13.643Z,0
2022-12-12T00:59:13.126Z,0
2022-12-12T01:00:13.871Z,0
2022-12-12T01:01:13.939Z,0
2022-12-12T01:02:14.011Z,0
2022-12-12T01:03:14.209Z,0
2022-12-12T01:04:13.526Z,0
2022-12-12T01:05:14.169Z,0
2022-12-12T01:06:12.954Z,0
2022-12-12T01:07:13.728Z,0
2022-12-12T01:08:13.856Z,0
2022-12-12T01:09:13.386Z,0
2022-12-12T01:10:13.620Z,0
2022-12-12T01:11:13.506Z,0
2022-12-12T01:12:13.340Z,0
2022-12-12T01:13:13.062Z,0
2022-12-12T01:14:13.542Z,0
2022-12-12T01:15:14.270Z,0
2022-12-12T01:16:14.320Z,0
2022-12-12T01:17:12.969Z,0
2022-12-12T01:18:13.207Z,0
2022-12-12T01:19:13.487Z,0
2022-12-12T01:20:13.157Z,0
2022-12-12T01:21:12.625Z,0
2022-12-12T01:22:13.375Z,0
2022-12-12T01:23:13.355Z,0
2022-12-12T01:24:13.581Z,0
2022-12-12T01:25:13.820Z,0
2022-12-12T01:26:13.269Z,0
2022-12-12T01:27:13.275Z,0
2022-12-12T01:28:13.491Z,0
2022-12-12T01:29:12.971Z,0
2022-12-12T01:30:12.944Z,0
2022-12-12T01:31:13.552Z,0
2022-12-12T01:32:13.434Z,0
2022-12-12T01:33:13.121Z,0
2022-12-12T01:34:44.918Z,0
2022-12-12T01:35:14.203Z,0
2022-12-12T01:36:13.061Z,0
2022-12-12T01:37:13.022Z,0
2022-12-12T01:38:13.266Z,0
2022-12-12T01:39:13.329Z,0
2022-12-12T01:40:12.963Z,0
2022-12-12T01:41:12.675Z,0
2022-12-12T01:42:12.649Z,0
2022-12-12T01:43:12.407Z,0
2022-12-12T01:44:12.884Z,0
2022-12-12T01:45:13.596Z,0
2022-12-12T01:46:12.591Z,0
2022-12-12T01:47:12.545Z,0
2022-12-12T01:48:14.888Z,0
2022-12-12T01:49:12.530Z,0
2022-12-12T01:50:12.717Z,0
2022-12-12T01:51:12.762Z,0
2022-12-12T01:52:12.696Z,0
2022-12-12T01:53:12.665Z,0
2022-12-12T01:54:12.632Z,0
2022-12-12T01:55:13.758Z,0
2022-12-12T01:56:12.634Z,0
2022-12-12T01:57:12.688Z,0
2022-12-12T01:58:12.690Z,0
2022-12-12T01:59:12.707Z,0
2022-12-12T02:00:12.661Z,0
2022-12-12T02:01:12.518Z,0
2022-12-12T02:02:12.592Z,0
2022-12-12T02:03:12.320Z,0
2022-12-12T02:04:12.320Z,0
2022-12-12T02:05:13.639Z,0
2022-12-12T02:06:12.007Z,0
2022-12-12T02:07:13.191Z,0
2022-12-12T02:08:12.872Z,0
2022-12-12T02:09:13.095Z,0
2022-12-12T02:10:12.552Z,0
2022-12-12T02:11:12.549Z,0
2022-12-12T02:12:12.767Z,0
2022-12-12T02:13:12.998Z,0
2022-12-12T02:14:12.777Z,0
2022-12-12T02:15:13.300Z,0
2022-12-12T02:16:13.323Z,0
2022-12-12T02:17:12.401Z,0
2022-12-12T02:18:19.070Z,0
2022-12-12T02:19:12.348Z,0
2022-12-12T02:20:12.349Z,0
2022-12-12T02:21:12.827Z,0
2022-12-12T02:22:12.296Z,0
2022-12-12T02:23:12.822Z,0
2022-12-12T02:24:12.483Z,0
2022-12-12T02:25:12.913Z,0
2022-12-12T02:26:12.199Z,0
2022-12-12T02:27:12.453Z,0
2022-12-12T02:28:12.147Z,0
2022-12-12T02:29:11.880Z,0
2022-12-12T02:30:12.372Z,0
2022-12-12T02:31:12.831Z,0
2022-12-12T02:32:12.576Z,0
2022-12-12T02:33:11.522Z,0
2022-12-12T02:34:12.065Z,0
2022-12-12T02:35:12.209Z,0
2022-12-12T02:36:11.984Z,0
2022-12-12T02:37:11.702Z,0
2022-12-12T02:38:12.173Z,0
2022-12-12T02:39:12.595Z,0
2022-12-12T02:40:11.869Z,0
2022-12-12T02:41:12.110Z,0
2022-12-12T02:42:12.089Z,0
2022-12-12T02:43:12.089Z,0
2022-12-12T02:44:11.533Z,0
2022-12-12T02:45:11.853Z,0
2022-12-12T02:46:11.775Z,0
2022-12-12T02:47:11.361Z,0
2022-12-12T02:48:11.427Z,0
2022-12-12T02:49:11.935Z,0
2022-12-12T02:50:11.681Z,0
2022-12-12T02:51:11.373Z,0
2022-12-12T02:52:12.133Z,0
2022-12-12T02:53:11.590Z,0
2022-12-12T02:54:11.825Z,0
2022-12-12T02:55:12.267Z,0
2022-12-12T02:56:12.026Z,0
2022-12-12T02:57:11.766Z,0
2022-12-12T02:58:11.725Z,0
2022-12-12T02:59:11.854Z,0
2022-12-12T03:00:11.966Z,0
2022-12-12T03:01:12.034Z,0
2022-12-12T03:02:12.128Z,0
2022-12-12T03:03:11.655Z,0
2022-12-12T03:04:11.604Z,0
2022-12-12T03:05:11.560Z,0
2022-12-12T03:06:11.562Z,0
2022-12-12T03:07:10.773Z,0
2022-12-12T03:08:11.653Z,0
2022-12-12T03:09:11.472Z,0
2022-12-12T03:10:11.485Z,0
2022-12-12T03:11:11.640Z,0
2022-12-12T03:12:11.695Z,0
2022-12-12T03:13:11.130Z,0
2022-12-12T03:14:11.368Z,0
2022-12-12T03:15:11.827Z,0
2022-12-12T03:16:12.092Z,0
2022-12-12T03:17:11.047Z,0
2022-12-12T03:18:11.030Z,0
2022-12-12T03:19:11.027Z,0
2022-12-12T03:20:11.227Z,0
2022-12-12T03:21:10.962Z,0
2022-12-12T03:22:11.189Z,0
2022-12-12T03:23:11.178Z,0
2022-12-12T03:24:11.439Z,0
2022-12-12T03:25:11.675Z,0
2022-12-12T03:26:11.361Z,0
2022-12-12T03:27:11.380Z,0
2022-12-12T03:28:10.801Z,0
2022-12-12T03:29:11.046Z,0
2022-12-12T03:30:11.034Z,0
2022-12-12T03:31:11.164Z,0
2022-12-12T03:32:10.958Z,0
2022-12-12T03:49:59.887Z,0
2022-12-12T03:50:59.369Z,0
2022-12-12T03:51:59.338Z,0
2022-12-12T03:52:58.798Z,0
2022-12-12T03:53:59.279Z,0
2022-12-12T03:54:58.740Z,0
2022-12-12T03:55:58.972Z,0
2022-12-12T03:56:58.946Z,0
2022-12-12T03:57:58.679Z,0
2022-12-12T03:58:59.424Z,0
2022-12-12T03:59:58.892Z,0
2022-12-12T04:00:59.412Z,0
2022-12-12T04:01:59.349Z,0
2022-12-12T04:02:59.476Z,0
2022-12-12T04:03:59.194Z,0
2022-12-12T04:04:59.439Z,0
2022-12-12T04:06:00.074Z,0
2022-12-12T04:06:59.382Z,0
2022-12-12T04:07:59.996Z,0
2022-12-12T04:08:59.585Z,0
2022-12-12T04:09:59.581Z,0
2022-12-12T04:10:59.086Z,0
2022-12-12T04:11:59.272Z,0
2022-12-12T04:12:59.495Z,0
2022-12-12T04:13:59.484Z,0
2022-12-12T04:14:59.464Z,0
2022-12-12T04:15:59.428Z,0
2022-12-12T04:16:59.346Z,0
2022-12-12T04:17:59.139Z,0
2022-12-12T04:18:59.117Z,0
2022-12-12T04:19:59.427Z,0
2022-12-12T04:20:59.335Z,0
2022-12-12T04:21:59.732Z,0
2022-12-12T04:22:59.539Z,0
2022-12-12T04:23:59.253Z,0
2022-12-12T04:24:59.501Z,0
2022-12-12T04:25:58.713Z,0
2022-12-12T04:26:59.187Z,0
2022-12-12T04:27:59.167Z,0
2022-12-12T04:28:59.195Z,0
2022-12-12T04:29:58.877Z,0
2022-12-12T04:30:58.844Z,0
2022-12-12T04:31:59.575Z,0
2022-12-12T04:32:59.319Z,0
2022-12-12T04:33:58.785Z,0
2022-12-12T04:34:58.521Z,0
2022-12-12T04:35:58.980Z,0
2022-12-12T04:36:59.222Z,0
2022-12-12T04:37:59.336Z,0
2022-12-12T04:38:58.931Z,0
2022-12-12T04:39:58.903Z,0
2022-12-12T04:40:58.879Z,0
2022-12-12T04:41:58.598Z,0
2022-12-12T04:42:58.831Z,0
2022-12-12T04:43:58.798Z,0
2022-12-12T04:44:58.641Z,0
2022-12-12T04:45:58.875Z,0
2022-12-12T04:46:58.506Z,0
2022-12-12T04:47:58.468Z,0
2022-12-12T04:49:02.908Z,0
2022-12-12T04:49:58.416Z,0
2022-12-12T04:50:58.659Z,0
2022-12-12T04:51:58.454Z,0
2022-12-12T04:52:58.412Z,0
2022-12-12T04:53:59.133Z,0
2022-12-12T04:54:58.317Z,0
2022-12-12T04:55:58.285Z,0
2022-12-12T04:56:58.259Z,0
2022-12-12T04:57:57.984Z,0
2022-12-12T04:58:58.488Z,0
2022-12-12T04:59:57.951Z,0
2022-12-12T05:00:58.816Z,0
2022-12-12T05:02:02.599Z,0
2022-12-12T05:02:58.181Z,0
2022-12-12T05:03:58.379Z,0
2022-12-12T05:04:57.819Z,0
2022-12-12T05:05:58.077Z,0
2022-12-12T05:06:58.558Z,0
2022-12-12T05:07:58.564Z,0
2022-12-12T05:08:57.983Z,0
2022-12-12T05:09:58.630Z,0
2022-12-12T05:10:58.240Z,0
2022-12-12T05:11:58.439Z,0
2022-12-12T05:12:58.401Z,0
2022-12-12T05:13:58.136Z,0
2022-12-12T05:14:57.864Z,0
2022-12-12T05:15:58.341Z,0
2022-12-12T05:16:58.156Z,0
2022-12-12T05:17:58.050Z,0
2022-12-12T05:18:57.522Z,0
2022-12-12T05:19:57.518Z,0
2022-12-12T05:20:57.721Z,0
2022-12-12T05:21:58.212Z,0
2022-12-12T05:22:57.715Z,0
2022-12-12T05:23:57.406Z,0
2022-12-12T05:24:57.895Z,0
2022-12-12T05:25:58.625Z,0
2022-12-12T05:26:57.857Z,0
2022-12-12T05:27:57.824Z,0
2022-12-12T05:29:01.093Z,0
2022-12-12T05:29:57.599Z,0
2022-12-12T05:30:57.985Z,0
2022-12-12T05:31:57.754Z,0
2022-12-12T05:32:57.714Z,0
2022-12-12T05:33:57.429Z,0
2022-12-12T05:34:57.413Z,0
2022-12-12T05:35:57.653Z,0
2022-12-12T05:36:57.907Z,0
2022-12-12T05:38:00.976Z,0
2022-12-12T05:38:57.319Z,0
2022-12-12T05:39:57.812Z,0
2022-12-12T05:40:57.287Z,0
2022-12-12T05:41:57.932Z,0
2022-12-12T05:42:57.263Z,0
2022-12-12T05:43:56.970Z,0
2022-12-12T05:44:57.196Z,0
2022-12-12T05:45:57.446Z,0
2022-12-12T05:46:57.400Z,0
2022-12-12T05:47:56.872Z,0
2022-12-12T05:48:57.427Z,0
2022-12-12T05:49:57.322Z,0
2022-12-12T05:50:57.056Z,0
2022-12-12T05:51:57.022Z,0
2022-12-12T05:52:57.275Z,0
2022-12-12T05:53:57.253Z,0
2022-12-12T05:54:57.224Z,0
2022-12-12T05:55:56.688Z,0
2022-12-12T05:56:57.180Z,0
2022-12-12T05:57:57.539Z,0
2022-12-12T05:58:57.132Z,0
2022-12-12T05:59:56.859Z,0
2022-12-12T06:01:03.424Z,0
2022-12-12T06:01:57.066Z,0
2022-12-12T06:02:57.114Z,0
2022-12-12T06:03:57.744Z,0
2022-12-12T06:04:56.765Z,0
2022-12-12T06:05:56.720Z,0
2022-12-12T06:06:56.990Z,0
2022-12-12T06:07:57.079Z,0
2022-12-12T06:08:56.913Z,0
2022-12-12T06:09:56.888Z,0
2022-12-12T06:10:56.605Z,0
2022-12-12T06:11:56.843Z,0
2022-12-12T06:12:56.592Z,0
2022-12-12T06:13:57.184Z,0
2022-12-12T06:14:56.527Z,0
2022-12-12T06:15:56.620Z,0
2022-12-12T06:16:56.486Z,0
2022-12-12T06:17:56.709Z,0
2022-12-12T06:18:56.426Z,0
2022-12-12T06:19:56.197Z,0
2022-12-12T06:20:56.394Z,0
2022-12-12T06:21:56.360Z,0
2022-12-12T06:23:03.224Z,0
2022-12-12T06:23:56.585Z,0
2022-12-12T06:24:56.303Z,0
2022-12-12T06:25:56.026Z,0
2022-12-12T06:26:56.507Z,0
2022-12-12T06:27:56.643Z,0
2022-12-12T06:28:56.492Z,0
2022-12-12T06:29:56.852Z,0
2022-12-12T06:30:56.660Z,0
2022-12-12T06:31:55.878Z,0
2022-12-12T06:32:56.476Z,0
2022-12-12T06:33:55.862Z,0
2022-12-12T06:34:56.078Z,0
2022-12-12T06:35:55.798Z,0
2022-12-12T06:36:56.290Z,0
2022-12-12T06:37:56.281Z,0
2022-12-12T06:38:56.494Z,0
2022-12-12T06:39:56.479Z,0
2022-12-12T06:40:56.202Z,0
2022-12-12T06:41:55.920Z,0
2022-12-12T06:42:58.281Z,0
2022-12-12T06:43:56.408Z,0
2022-12-12T06:44:55.848Z,0
2022-12-12T06:45:56.600Z,0
2022-12-12T06:46:56.162Z,0
2022-12-12T06:47:55.790Z,0
2022-12-12T06:48:55.523Z,0
2022-12-12T06:49:55.506Z,0
2022-12-12T06:50:55.713Z,0
2022-12-12T06:51:55.467Z,0
2022-12-12T06:52:55.447Z,0
2022-12-12T06:53:55.910Z,0
2022-12-12T06:54:56.202Z,0
2022-12-12T06:55:55.875Z,0
2022-12-12T06:56:58.401Z,0
2022-12-12T06:57:55.822Z,0
2022-12-12T06:58:55.814Z,0
2022-12-12T06:59:55.796Z,0
2022-12-12T07:00:56.024Z,0
2022-12-12T07:01:56.494Z,5
2022-12-12T07:02:56.053Z,5
2022-12-12T07:03:55.948Z,5
2022-12-12T07:04:55.680Z,5
2022-12-12T07:05:55.391Z,5
2022-12-12T07:06:55.378Z,5
2022-12-12T07:07:56.167Z,5
2022-12-12T07:08:54.834Z,5
2022-12-12T07:09:55.573Z,5
2022-12-12T07:10:55.546Z,10
2022-12-12T07:11:55.256Z,10
2022-12-12T07:13:03.167Z,10
2022-12-12T07:13:55.228Z,10
2022-12-12T07:14:55.045Z,10
2022-12-12T07:15:55.740Z,10
2022-12-12T07:16:54.644Z,10
2022-12-12T07:17:55.778Z,10
2022-12-12T07:18:55.130Z,15
2022-12-12T07:19:55.341Z,15
2022-12-12T07:20:55.317Z,15
2022-12-12T07:21:55.048Z,15
2022-12-12T07:22:55.008Z,15
2022-12-12T07:23:54.991Z,15
2022-12-12T07:24:55.362Z,20
2022-12-12T07:25:54.714Z,20
2022-12-12T07:26:54.932Z,20
2022-12-12T07:27:55.172Z,20
2022-12-12T07:28:54.918Z,20
2022-12-12T07:29:54.979Z,20
2022-12-12T07:30:55.361Z,20
2022-12-12T07:31:54.861Z,20
2022-12-12T07:32:54.805Z,25
2022-12-12T07:33:55.412Z,25
2022-12-12T07:34:55.742Z,25
2022-12-12T07:35:54.991Z,25
2022-12-12T07:37:02.774Z,30
2022-12-12T07:37:54.239Z,30
2022-12-12T07:38:54.680Z,30
2022-12-12T07:39:54.670Z,30
2022-12-12T07:40:54.877Z,35
2022-12-12T07:41:55.094Z,35
2022-12-12T07:42:54.577Z,35
2022-12-12T07:43:54.707Z,35
2022-12-12T07:44:54.529Z,40
2022-12-12T07:45:55.047Z,40
2022-12-12T07:46:54.957Z,40
2022-12-12T07:47:54.734Z,40
2022-12-12T07:48:54.474Z,40
2022-12-12T07:49:55.175Z,45
2022-12-12T07:50:54.392Z,45
2022-12-12T07:51:58.320Z,50
2022-12-12T07:52:54.618Z,50
2022-12-12T07:53:54.594Z,50
2022-12-12T07:54:54.816Z,55
2022-12-12T07:55:54.542Z,55
2022-12-12T07:56:54.274Z,60
2022-12-12T07:57:54.247Z,60
2022-12-12T07:58:54.231Z,60
2022-12-12T07:59:54.187Z,60
2022-12-12T08:00:53.929Z,60
2022-12-12T08:01:54.708Z,60
2022-12-12T08:02:54.410Z,60
2022-12-12T08:03:54.645Z,60
2022-12-12T08:04:54.640Z,55
2022-12-12T08:05:54.704Z,55
2022-12-12T08:07:08.706Z,55
2022-12-12T08:07:54.640Z,55
2022-12-12T08:08:54.005Z,55
2022-12-12T08:09:54.235Z,55
2022-12-12T08:10:53.962Z,55
2022-12-12T08:11:56.461Z,55
2022-12-12T08:12:53.906Z,55
2022-12-12T08:13:54.465Z,55
2022-12-12T08:14:53.873Z,55
2022-12-12T08:15:54.402Z,55
2022-12-12T08:16:53.581Z,60
2022-12-12T08:17:54.075Z,60
2022-12-12T08:18:54.050Z,60
2022-12-12T08:19:54.011Z,60
2022-12-12T08:20:54.333Z,65
2022-12-12T08:21:54.424Z,65
2022-12-12T08:22:53.444Z,65
2022-12-12T08:23:53.422Z,70
2022-12-12T08:24:53.411Z,75
2022-12-12T08:25:53.635Z,70
2022-12-12T08:26:53.350Z,70
2022-12-12T08:27:53.835Z,70
2022-12-12T08:28:53.876Z,70
2022-12-12T08:29:53.543Z,70
2022-12-12T08:30:54.036Z,70
2022-12-12T08:31:54.243Z,75
2022-12-12T08:32:54.006Z,75
2022-12-12T08:33:53.270Z,75
2022-12-12T08:34:53.167Z,75
2022-12-12T08:35:53.442Z,75
2022-12-12T08:36:53.679Z,80
2022-12-12T08:37:54.043Z,80
2022-12-12T08:38:53.634Z,85
2022-12-12T08:40:00.439Z,85
2022-12-12T08:40:53.305Z,85
2022-12-12T08:41:53.543Z,85
2022-12-12T08:42:53.247Z,85
2022-12-12T08:43:53.227Z,85
2022-12-12T08:44:53.215Z,90
2022-12-12T08:45:53.731Z,90
2022-12-12T08:46:53.384Z,95
2022-12-12T08:47:53.398Z,95
2022-12-12T08:48:53.374Z,100
2022-12-12T08:49:53.376Z,105
2022-12-12T08:50:53.609Z,105
2022-12-12T08:51:53.582Z,105
2022-12-12T08:52:52.789Z,110
2022-12-12T08:53:53.687Z,110
2022-12-12T08:54:52.745Z,110
2022-12-12T08:55:52.967Z,110
2022-12-12T08:56:53.197Z,110
2022-12-12T08:57:52.929Z,100
2022-12-12T08:58:52.922Z,100
2022-12-12T08:59:52.643Z,100
2022-12-12T09:00:52.610Z,95
2022-12-12T09:01:53.519Z,95
2022-12-12T09:02:53.658Z,90
2022-12-12T09:03:53.051Z,90
2022-12-12T09:04:52.773Z,85
2022-12-12T09:05:53.004Z,85
2022-12-12T09:06:53.001Z,80
2022-12-12T09:07:53.565Z,80
2022-12-12T09:08:52.942Z,80
2022-12-12T09:09:53.317Z,80
2022-12-12T09:10:52.915Z,80
2022-12-12T09:11:52.892Z,80
2022-12-12T09:12:52.344Z,75
2022-12-12T09:13:52.570Z,75
2022-12-12T09:14:53.106Z,75
2022-12-12T09:15:53.432Z,75
2022-12-12T09:16:52.955Z,75
2022-12-12T09:17:52.491Z,75
2022-12-12T09:18:58.270Z,75
2022-12-12T09:19:52.521Z,75
2022-12-12T09:20:52.430Z,75
2022-12-12T09:21:52.670Z,75
2022-12-12T09:22:52.396Z,75
2022-12-12T09:23:52.881Z,80
2022-12-12T09:24:52.600Z,80
2022-12-12T09:25:52.999Z,80
2022-12-12T09:26:52.555Z,80
2022-12-12T09:27:52.786Z,80
2022-12-12T09:28:52.522Z,85
2022-12-12T09:29:52.772Z,80
2022-12-12T09:30:52.253Z,80
2022-12-12T09:31:53.095Z,80
2022-12-12T09:32:52.203Z,85
2022-12-12T09:33:52.429Z,85
2022-12-12T09:34:52.390Z,85
2022-12-12T09:35:52.639Z,85
2022-12-12T09:36:52.079Z,85
2022-12-12T09:37:52.057Z,85
2022-12-12T09:38:52.108Z,85
2022-12-12T09:39:52.013Z,85
2022-12-12T09:40:52.014Z,90
2022-12-12T09:41:52.640Z,90
2022-12-12T09:42:51.974Z,90
2022-12-12T09:43:52.187Z,95
2022-12-12T09:44:52.165Z,95
2022-12-12T09:45:52.884Z,95
2022-12-12T09:46:52.119Z,95
2022-12-12T09:47:51.840Z,100
2022-12-12T09:48:52.345Z,100
2022-12-12T09:49:53.668Z,100
2022-12-12T09:50:51.526Z,100
2022-12-12T09:51:52.027Z,105
2022-12-12T09:52:52.242Z,105
2022-12-12T09:53:51.449Z,105
2022-12-12T09:54:52.191Z,105
2022-12-12T09:55:51.952Z,105
2022-12-12T09:56:51.899Z,105
2022-12-12T09:57:52.292Z,100
2022-12-12T09:59:03.539Z,100
2022-12-12T09:59:51.839Z,100
2022-12-12T10:00:52.882Z,105
2022-12-12T10:01:52.726Z,105
2022-12-12T10:02:52.303Z,100
2022-12-12T10:03:52.290Z,95
2022-12-12T10:04:58.489Z,95
2022-12-12T10:06:56.834Z,95
2022-12-12T10:07:57.393Z,95
2022-12-12T10:08:56.301Z,90
2022-12-12T10:09:56.591Z,90
2022-12-12T10:10:56.987Z,90
2022-12-12T10:11:56.751Z,90
2022-12-12T10:12:57.371Z,90
2022-12-12T10:13:56.939Z,95
2022-12-12T10:14:56.922Z,95
2022-12-12T10:15:56.776Z,95
2022-12-12T10:17:05.495Z,95
2022-12-12T10:17:56.866Z,95
2022-12-12T10:18:56.943Z,95
2022-12-12T10:19:56.570Z,100
2022-12-12T10:20:56.534Z,100
2022-12-12T10:21:56.242Z,100
2022-12-12T10:22:57.011Z,100
2022-12-12T10:23:56.220Z,105
2022-12-12T10:24:56.710Z,110
2022-12-12T10:25:56.412Z,110
2022-12-12T10:26:56.133Z,110
2022-12-12T10:27:56.388Z,110
2022-12-12T10:28:57.021Z,110
2022-12-12T10:29:56.637Z,115
2022-12-12T10:30:56.316Z,115
2022-12-12T10:31:57.232Z,115
2022-12-12T10:32:56.556Z,110
2022-12-12T10:33:56.515Z,105
2022-12-12T10:34:57.485Z,105
2022-12-12T10:35:56.470Z,105
2022-12-12T10:36:56.701Z,105
2022-12-12T10:37:56.411Z,105
2022-12-12T10:38:56.399Z,105
2022-12-12T10:39:56.108Z,110
2022-12-12T10:40:55.828Z,110
2022-12-12T10:41:56.577Z,110
2022-12-12T10:42:55.797Z,110
2022-12-12T10:43:56.277Z,115
2022-12-12T10:44:57.230Z,115
2022-12-12T10:45:56.256Z,115
2022-12-12T10:46:56.931Z,110
2022-12-12T10:47:56.201Z,110
2022-12-12T10:48:55.671Z,110
2022-12-12T10:49:56.289Z,110
2022-12-12T10:50:56.143Z,110
2022-12-12T10:51:56.374Z,110
2022-12-12T10:52:55.848Z,115
2022-12-12T10:53:56.071Z,115
2022-12-12T10:54:56.081Z,115
2022-12-12T10:55:55.771Z,120
2022-12-12T10:56:55.484Z,120
2022-12-12T10:57:55.716Z,125
2022-12-12T10:58:55.965Z,120
2022-12-12T10:59:55.828Z,120
2022-12-12T11:00:56.834Z,120
2022-12-12T11:02:19.077Z,120
2022-12-12T11:03:02.870Z,120
2022-12-12T11:03:56.107Z,120
2022-12-12T11:04:55.566Z,120
2022-12-12T11:05:55.541Z,120
2022-12-12T11:06:56.215Z,125
2022-12-12T11:07:55.878Z,130
2022-12-12T11:08:55.751Z,135
2022-12-12T11:10:00.356Z,135
2022-12-12T11:10:55.445Z,140
2022-12-12T11:11:55.938Z,140
2022-12-12T11:12:55.658Z,140
2022-12-12T11:13:55.385Z,140
2022-12-12T11:14:55.917Z,145
2022-12-12T11:15:55.329Z,140
2022-12-12T11:16:56.419Z,145
2022-12-12T11:17:55.285Z,150
2022-12-12T11:18:55.104Z,155
2022-12-12T11:19:55.518Z,150
2022-12-12T11:20:55.538Z,150
2022-12-12T11:21:55.225Z,145
2022-12-12T11:22:55.452Z,145
2022-12-12T11:23:55.464Z,150
2022-12-12T11:24:55.156Z,150
2022-12-12T11:25:55.139Z,150
2022-12-12T11:26:55.367Z,150
2022-12-12T11:27:55.341Z,145
2022-12-12T11:28:55.577Z,145
2022-12-12T11:29:55.274Z,140
2022-12-12T11:30:55.012Z,140
2022-12-12T11:31:55.580Z,140
2022-12-12T11:32:55.635Z,140
2022-12-12T11:33:56.918Z,140
2022-12-12T11:34:55.181Z,135
2022-12-12T11:35:57.144Z,130
2022-12-12T11:36:54.893Z,130
2022-12-12T11:37:54.357Z,125
2022-12-12T11:38:54.859Z,120
2022-12-12T11:39:55.282Z,120
2022-12-12T11:40:55.054Z,115
2022-12-12T11:41:55.078Z,105
2022-12-12T11:42:55.023Z,105
2022-12-12T11:43:55.258Z,105
2022-12-12T11:44:54.719Z,110
2022-12-12T11:45:54.458Z,110
2022-12-12T11:46:55.034Z,110
2022-12-12T11:47:54.661Z,110
2022-12-12T11:48:55.289Z,110
2022-12-12T11:49:54.893Z,115
2022-12-12T11:50:54.585Z,110
2022-12-12T11:51:55.952Z,105
2022-12-12T11:52:55.434Z,100
2022-12-12T11:53:55.131Z,100
2022-12-12T11:54:55.892Z,100
2022-12-12T11:55:55.607Z,105
2022-12-12T11:56:55.585Z,110
2022-12-12T11:58:01.921Z,115
2022-12-12T11:58:55.802Z,115
2022-12-12T11:59:55.712Z,115
2022-12-12T12:00:55.494Z,115
2022-12-12T12:01:55.469Z,115
2022-12-12T12:02:56.025Z,110
2022-12-12T12:03:55.570Z,110
2022-12-12T12:05:02.862Z,110
2022-12-12T12:05:55.134Z,115
2022-12-12T12:06:54.604Z,115
2022-12-12T12:07:56.137Z,110
2022-12-12T12:08:55.343Z,110
2022-12-12T12:09:55.309Z,110
2022-12-12T12:10:54.508Z,110
2022-12-12T12:11:55.263Z,110
2022-12-12T12:12:54.990Z,110
2022-12-12T12:13:54.966Z,115
2022-12-12T12:14:54.428Z,115
2022-12-12T12:15:54.733Z,115
2022-12-12T12:16:55.544Z,110
2022-12-12T12:17:55.149Z,105
2022-12-12T12:18:55.105Z,105
2022-12-12T12:19:55.347Z,100
2022-12-12T12:20:55.480Z,100
2022-12-12T12:21:55.066Z,95
2022-12-12T12:22:55.035Z,95
2022-12-12T12:23:59.430Z,95
2022-12-12T12:24:54.733Z,90
2022-12-12T12:25:55.345Z,90
2022-12-12T12:26:55.326Z,90
2022-12-12T12:27:55.563Z,90
2022-12-12T12:28:55.024Z,90
2022-12-12T12:29:55.330Z,90
2022-12-12T12:30:55.780Z,95
2022-12-12T12:31:55.475Z,95
2022-12-12T12:32:55.451Z,100
2022-12-12T12:33:55.170Z,100
2022-12-12T12:34:55.679Z,105
2022-12-12T12:35:54.867Z,110
2022-12-12T12:36:55.759Z,110
2022-12-12T12:37:55.896Z,110
2022-12-12T12:38:55.605Z,110
2022-12-12T12:39:55.325Z,110
2022-12-12T12:40:55.840Z,115
2022-12-12T12:41:55.278Z,115
2022-12-12T12:42:59.115Z,115
2022-12-12T12:43:55.265Z,115
2022-12-12T12:44:54.964Z,115
2022-12-12T12:45:55.978Z,120
2022-12-12T12:46:54.937Z,115
2022-12-12T12:47:55.670Z,115
2022-12-12T12:48:55.678Z,115
2022-12-12T12:49:55.284Z,115
2022-12-12T12:50:55.368Z,115
2022-12-12T12:52:00.183Z,110
2022-12-12T12:52:55.345Z,105
2022-12-12T12:53:55.037Z,105
2022-12-12T12:54:55.267Z,105
2022-12-12T12:55:55.496Z,100
2022-12-12T12:56:54.973Z,95
2022-12-12T12:57:54.981Z,90
2022-12-12T12:58:55.174Z,90
2022-12-12T12:59:55.229Z,85
2022-12-12T13:00:55.398Z,80
2022-12-12T13:01:55.589Z,80
2022-12-12T13:02:55.203Z,80
2022-12-12T13:03:54.562Z,75
2022-12-12T13:04:55.060Z,75
2022-12-12T13:05:54.783Z,75
2022-12-12T13:06:55.029Z,75
2022-12-12T13:07:55.582Z,75
2022-12-12T13:08:54.995Z,75
2022-12-12T13:09:55.053Z,70
2022-12-12T13:10:54.670Z,75
2022-12-12T13:11:55.184Z,75
2022-12-12T13:12:54.367Z,75
2022-12-12T13:13:54.863Z,70
2022-12-12T13:14:54.869Z,70
2022-12-12T13:15:54.929Z,70
2022-12-12T13:16:54.537Z,70
2022-12-12T13:17:54.786Z,70
2022-12-12T13:18:55.516Z,70
2022-12-12T13:19:54.565Z,65
2022-12-12T13:20:54.450Z,65
2022-12-12T13:21:54.724Z,65
2022-12-12T13:22:54.430Z,65
2022-12-12T13:23:55.008Z,65
2022-12-12T13:25:02.191Z,65
2022-12-12T13:25:54.604Z,65
2022-12-12T13:26:54.848Z,70
2022-12-12T13:27:54.572Z,65
2022-12-12T13:28:54.035Z,65
2022-12-12T13:29:54.841Z,65
2022-12-12T13:30:54.746Z,65
2022-12-12T13:31:54.747Z,65
2022-12-12T13:32:54.223Z,65
2022-12-12T13:33:54.202Z,60
2022-12-12T13:34:54.421Z,60
2022-12-12T13:35:54.652Z,60
2022-12-12T13:36:54.119Z,60
2022-12-12T13:37:54.352Z,60
2022-12-12T13:38:54.610Z,60
2022-12-12T13:39:54.520Z,60
2022-12-12T13:40:54.051Z,60
2022-12-12T13:41:54.012Z,60
2022-12-12T13:42:54.248Z,55
2022-12-12T13:43:53.966Z,55
2022-12-12T13:44:53.948Z,55
2022-12-12T13:45:54.283Z,60
2022-12-12T13:46:54.393Z,55
2022-12-12T13:47:54.131Z,55
2022-12-12T13:48:56.354Z,55
2022-12-12T13:49:53.946Z,55
2022-12-12T13:50:54.081Z,60
2022-12-12T13:51:54.312Z,60
2022-12-12T13:52:54.048Z,60
2022-12-12T13:53:54.008Z,60
2022-12-12T13:54:53.989Z,60
2022-12-12T13:55:54.154Z,60
2022-12-12T13:56:54.214Z,60
2022-12-12T13:57:53.913Z,55
2022-12-12T13:58:53.654Z,55
2022-12-12T13:59:53.887Z,50
2022-12-12T14:00:53.915Z,50
2022-12-12T14:01:54.143Z,50
2022-12-12T14:03:01.661Z,50
2022-12-12T14:03:53.799Z,50
2022-12-12T14:04:53.782Z,50
2022-12-12T14:05:53.497Z,45
2022-12-12T14:06:53.728Z,45
2022-12-12T14:07:54.004Z,40
2022-12-12T14:08:53.439Z,40
2022-12-12T14:09:58.292Z,40
2022-12-12T14:10:53.658Z,35
2022-12-12T14:11:53.711Z,35
2022-12-12T14:12:53.625Z,35
2022-12-12T14:13:53.637Z,30
2022-12-12T14:14:53.558Z,30
2022-12-12T14:15:54.078Z,30
2022-12-12T14:16:53.507Z,30
2022-12-12T14:17:53.257Z,30
2022-12-12T14:18:52.971Z,30
2022-12-12T14:19:53.216Z,25
2022-12-12T14:20:53.430Z,25
2022-12-12T14:21:53.461Z,25
2022-12-12T14:22:53.128Z,20
2022-12-12T14:23:53.373Z,20
2022-12-12T14:24:57.908Z,20
2022-12-12T14:25:53.563Z,20
2022-12-12T14:26:53.080Z,20
2022-12-12T14:27:53.625Z,15
2022-12-12T14:28:53.277Z,15
2022-12-12T14:29:53.290Z,15
2022-12-12T14:30:53.589Z,15
2022-12-12T14:31:53.594Z,15
2022-12-12T14:32:53.175Z,15
2022-12-12T14:33:52.901Z,15
2022-12-12T14:34:53.132Z,15
2022-12-12T14:35:52.847Z,15
2022-12-12T14:36:53.148Z,15
2022-12-12T14:37:58.853Z,15
2022-12-12T14:38:53.304Z,15
2022-12-12T14:39:52.894Z,15
2022-12-12T14:40:52.995Z,15
2022-12-12T14:41:52.986Z,15